Time,TemperatureF,DewpointF,PressureIn,WindDirection,WindDirectionDegrees,WindSpeedMPH,WindSpeedGustMPH,Humidity,HourlyPrecipIn,Conditions,Clouds,dailyrainin,SoftwareType,DateUTC
2013-03-21 00:56:00,26.0,24.0,30.01,NNE,22,8.0,-999.0,93,-99.99,,,0.00,weatherlink.com 1.10,2013-03-21 04:56:00,
2013-03-21 01:11:00,26.0,24.0,30.01,NNW,345,12.0,-999.0,91,-99.99,,,0.00,weatherlink.com 1.10,2013-03-21 05:11:00,
2013-03-21 01:42:00,25.6,20.0,29.99,NNW,338,5.0,-999.0,80,-99.99,,,0.00,weatherlink.com 1.10,2013-03-21 05:42:00,
2013-03-21 01:56:00,25.7,19.0,29.99,NNE,23,7.0,-999.0,75,-99.99,,,0.00,weatherlink.com 1.10,2013-03-21 05:56:00,
2013-03-21 02:11:00,25.5,18.0,29.98,NNW,344,4.0,-999.0,74,-99.99,,,0.00,weatherlink.com 1.10,2013-03-21 06:11:00,
2013-03-21 02:26:00,25.3,17.0,29.98,NNE,28,7.0,-999.0,72,-99.99,,,0.00,weatherlink.com 1.10,2013-03-21 06:26:00,
2013-03-21 02:41:00,25.1,17.0,29.98,North,11,13.0,-999.0,71,-99.99,,,0.00,weatherlink.com 1.10,2013-03-21 06:41:00,
2013-03-21 03:12:00,24.2,15.0,29.96,North,350,4.0,-999.0,69,-99.99,,,0.00,weatherlink.com 1.10,2013-03-21 07:12:00,
2013-03-21 03:26:00,23.8,15.0,29.96,NNE,19,5.0,-999.0,69,-99.99,,,0.00,weatherlink.com 1.10,2013-03-21 07:26:00,
2013-03-21 03:41:00,23.5,14.0,29.96,North,360,8.0,-999.0,67,-99.99,,,0.00,weatherlink.com 1.10,2013-03-21 07:41:00,
2013-03-21 03:56:00,23.1,13.0,29.95,NE,56,10.0,-999.0,65,-99.99,,,0.00,weatherlink.com 1.10,2013-03-21 07:56:00,
2013-03-21 04:11:00,22.6,10.0,29.95,NW,320,5.0,-999.0,59,-99.99,,,0.00,weatherlink.com 1.10,2013-03-21 08:11:00,
2013-03-21 04:26:00,22.0,10.0,29.93,NE,34,13.0,-999.0,60,-99.99,,,0.00,weatherlink.com 1.10,2013-03-21 08:26:00,
2013-03-21 04:56:00,20.7,8.0,29.94,NE,53,5.0,-999.0,59,-99.99,,,0.00,weatherlink.com 1.10,2013-03-21 08:56:00,
2013-03-21 05:12:00,20.3,8.0,29.93,NE,36,7.0,-999.0,58,-99.99,,,0.00,weatherlink.com 1.10,2013-03-21 09:12:00,
2013-03-21 05:26:00,19.9,6.0,29.94,NNE,31,3.0,-999.0,55,-99.99,,,0.00,weatherlink.com 1.10,2013-03-21 09:26:00,
2013-03-21 05:41:00,19.6,5.0,29.94,NE,55,3.0,-999.0,53,-99.99,,,0.00,weatherlink.com 1.10,2013-03-21 09:41:00,
2013-03-21 05:56:00,19.2,5.0,29.94,NNE,21,7.0,-999.0,53,-99.99,,,0.00,weatherlink.com 1.10,2013-03-21 09:56:00,
2013-03-21 06:11:00,19.0,4.0,29.94,NNW,334,2.0,-999.0,52,-99.99,,,0.00,weatherlink.com 1.10,2013-03-21 10:11:00,
2013-03-21 06:26:00,18.7,4.0,29.93,NE,34,10.0,-999.0,53,-99.99,,,0.00,weatherlink.com 1.10,2013-03-21 10:26:00,
2013-03-21 06:41:00,18.4,5.0,29.94,NE,36,6.0,-999.0,55,-99.99,,,0.00,weatherlink.com 1.10,2013-03-21 10:41:00,
2013-03-21 06:56:00,18.1,4.0,29.94,NE,46,10.0,-999.0,55,-99.99,,,0.00,weatherlink.com 1.10,2013-03-21 10:56:00,
2013-03-21 07:11:00,17.8,4.0,29.95,NW,306,3.0,-999.0,55,-99.99,,,0.00,weatherlink.com 1.10,2013-03-21 11:11:00,
2013-03-21 07:26:00,17.6,4.0,29.95,West,281,8.0,-999.0,55,-99.99,,,0.00,weatherlink.com 1.10,2013-03-21 11:26:00,
2013-03-21 07:41:00,17.3,4.0,29.95,NNE,22,4.0,-999.0,55,-99.99,,,0.00,weatherlink.com 1.10,2013-03-21 11:41:00,
2013-03-21 08:12:00,17.0,3.0,29.95,NNE,20,10.0,-999.0,54,-99.99,,,0.00,weatherlink.com 1.10,2013-03-21 12:12:00,
2013-03-21 08:26:00,16.9,3.0,29.95,NE,46,6.0,-999.0,54,-99.99,,,0.00,weatherlink.com 1.10,2013-03-21 12:26:00,
2013-03-21 08:41:00,16.9,3.0,29.95,North,5,4.0,-999.0,54,-99.99,,,0.00,weatherlink.com 1.10,2013-03-21 12:41:00,
2013-03-21 09:11:00,17.2,2.0,29.96,North,355,6.0,-999.0,51,-99.99,,,0.00,weatherlink.com 1.10,2013-03-21 13:11:00,
2013-03-21 09:41:00,17.9,2.0,29.98,NE,37,6.0,-999.0,50,-99.99,,,0.00,weatherlink.com 1.10,2013-03-21 13:41:00,
2013-03-21 09:56:00,18.6,2.0,29.98,NNE,22,8.0,-999.0,48,-99.99,,,0.00,weatherlink.com 1.10,2013-03-21 13:56:00,
2013-03-21 10:26:00,19.9,3.0,29.99,North,350,1.0,-999.0,47,-99.99,,,0.00,weatherlink.com 1.10,2013-03-21 14:26:00,
2013-03-21 10:41:00,20.9,3.0,29.99,North,5,2.0,-999.0,46,-99.99,,,0.00,weatherlink.com 1.10,2013-03-21 14:41:00,
2013-03-21 10:56:00,21.9,3.0,30.00,NW,310,3.0,-999.0,44,-99.99,,,0.00,weatherlink.com 1.10,2013-03-21 14:56:00,
2013-03-21 11:12:00,22.7,4.0,30.00,NNE,12,6.0,-999.0,44,-99.99,,,0.00,weatherlink.com 1.10,2013-03-21 15:12:00,
2013-03-21 11:42:00,23.7,4.0,30.01,North,360,3.0,-999.0,43,-99.99,,,0.00,weatherlink.com 1.10,2013-03-21 15:42:00,
2013-03-21 11:56:00,24.2,5.0,30.01,North,355,8.0,-999.0,43,-99.99,,,0.00,weatherlink.com 1.10,2013-03-21 15:56:00,
2013-03-21 12:11:00,24.8,4.0,30.02,NW,309,5.0,-999.0,40,-99.99,,,0.00,weatherlink.com 1.10,2013-03-21 16:11:00,
2013-03-21 12:26:00,25.5,4.0,30.02,ENE,60,10.0,-999.0,40,-99.99,,,0.00,weatherlink.com 1.10,2013-03-21 16:26:00,
2013-03-21 12:41:00,26.2,5.0,30.03,NNE,29,9.0,-999.0,40,-99.99,,,0.00,weatherlink.com 1.10,2013-03-21 16:41:00,
2013-03-21 12:56:00,26.2,4.0,30.03,NE,36,7.0,-999.0,39,-99.99,,,0.00,weatherlink.com 1.10,2013-03-21 16:56:00,
2013-03-21 13:12:00,26.4,4.0,30.03,NNW,346,3.0,-999.0,38,-99.99,,,0.00,weatherlink.com 1.10,2013-03-21 17:12:00,
2013-03-21 13:26:00,27.8,5.0,30.03,North,351,6.0,-999.0,38,-99.99,,,0.00,weatherlink.com 1.10,2013-03-21 17:26:00,
2013-03-21 13:41:00,27.2,5.0,30.02,NNE,28,11.0,-999.0,39,-99.99,,,0.00,weatherlink.com 1.10,2013-03-21 17:41:00,
2013-03-21 13:56:00,27.6,6.0,30.02,NNE,30,11.0,-999.0,39,-99.99,,,0.00,weatherlink.com 1.10,2013-03-21 17:56:00,
2013-03-21 14:11:00,28.5,6.0,30.02,NE,46,8.0,-999.0,38,-99.99,,,0.00,weatherlink.com 1.10,2013-03-21 18:11:00,
2013-03-21 14:26:00,28.9,6.0,30.02,NNE,16,8.0,-999.0,38,-99.99,,,0.00,weatherlink.com 1.10,2013-03-21 18:26:00,
2013-03-21 14:41:00,29.1,6.0,30.02,North,350,11.0,-999.0,38,-99.99,,,0.00,weatherlink.com 1.10,2013-03-21 18:41:00,
2013-03-21 15:27:00,30.0,6.0,30.02,NE,53,11.0,-999.0,36,-99.99,,,0.00,weatherlink.com 1.10,2013-03-21 19:27:00,
2013-03-21 15:42:00,29.8,5.0,30.02,NNE,32,8.0,-999.0,35,-99.99,,,0.00,weatherlink.com 1.10,2013-03-21 19:42:00,
2013-03-21 15:56:00,30.2,5.0,30.02,NNE,22,9.0,-999.0,35,-99.99,,,0.00,weatherlink.com 1.10,2013-03-21 19:56:00,
2013-03-21 16:26:00,30.8,5.0,30.04,North,360,4.0,-999.0,34,-99.99,,,0.00,weatherlink.com 1.10,2013-03-21 20:26:00,
2013-03-21 16:41:00,30.6,6.0,30.04,North,9,4.0,-999.0,36,-99.99,,,0.00,weatherlink.com 1.10,2013-03-21 20:41:00,
2013-03-21 17:12:00,30.7,6.0,30.04,NNE,29,9.0,-999.0,35,-99.99,,,0.00,weatherlink.com 1.10,2013-03-21 21:12:00,
2013-03-21 17:27:00,30.1,7.0,30.04,NNE,23,6.0,-999.0,37,-99.99,,,0.00,weatherlink.com 1.10,2013-03-21 21:27:00,
2013-03-21 17:42:00,30.6,7.0,30.05,North,355,3.0,-999.0,37,-99.99,,,0.00,weatherlink.com 1.10,2013-03-21 21:42:00,
2013-03-21 17:56:00,30.1,7.0,30.05,NNW,327,5.0,-999.0,37,-99.99,,,0.00,weatherlink.com 1.10,2013-03-21 21:56:00,
2013-03-21 18:12:00,30.1,7.0,30.05,North,5,5.0,-999.0,38,-99.99,,,0.00,weatherlink.com 1.10,2013-03-21 22:12:00,
2013-03-21 18:26:00,29.9,8.0,30.06,ENE,67,5.0,-999.0,39,-99.99,,,0.00,weatherlink.com 1.10,2013-03-21 22:26:00,
2013-03-21 18:41:00,29.9,7.0,30.06,NNW,330,5.0,-999.0,38,-99.99,,,0.00,weatherlink.com 1.10,2013-03-21 22:41:00,
2013-03-21 18:57:00,29.2,7.0,30.06,NE,35,5.0,-999.0,39,-99.99,,,0.00,weatherlink.com 1.10,2013-03-21 22:57:00,
2013-03-21 19:12:00,28.8,7.0,30.07,NNE,25,5.0,-999.0,39,-99.99,,,0.00,weatherlink.com 1.10,2013-03-21 23:12:00,
2013-03-21 19:27:00,28.5,7.0,30.08,NNW,346,4.0,-999.0,41,-99.99,,,0.00,weatherlink.com 1.10,2013-03-21 23:27:00,
2013-03-21 19:41:00,28.0,7.0,30.08,North,5,3.0,-999.0,42,-99.99,,,0.00,weatherlink.com 1.10,2013-03-21 23:41:00,
2013-03-21 19:56:00,27.5,8.0,30.09,NNE,17,7.0,-999.0,43,-99.99,,,0.00,weatherlink.com 1.10,2013-03-21 23:56:00,
2013-03-21 20:12:00,27.1,8.0,30.09,NE,48,7.0,-999.0,44,-99.99,,,0.00,weatherlink.com 1.10,2013-03-22 00:12:00,
2013-03-21 20:41:00,26.7,8.0,30.09,NNE,24,2.0,-999.0,45,-99.99,,,0.00,weatherlink.com 1.10,2013-03-22 00:41:00,
2013-03-21 20:56:00,26.4,8.0,30.09,NNE,19,7.0,-999.0,46,-99.99,,,0.00,weatherlink.com 1.10,2013-03-22 00:56:00,
2013-03-21 21:26:00,25.8,8.0,30.12,North,360,7.0,-999.0,47,-99.99,,,0.00,weatherlink.com 1.10,2013-03-22 01:26:00,
2013-03-21 21:41:00,25.6,8.0,30.12,NE,44,1.0,-999.0,48,-99.99,,,0.00,weatherlink.com 1.10,2013-03-22 01:41:00,
2013-03-21 21:56:00,25.3,9.0,30.11,NE,45,8.0,-999.0,50,-99.99,,,0.00,weatherlink.com 1.10,2013-03-22 01:56:00,
2013-03-21 22:11:00,25.2,9.0,30.11,NE,49,6.0,-999.0,50,-99.99,,,0.00,weatherlink.com 1.10,2013-03-22 02:11:00,
2013-03-21 22:27:00,25.0,9.0,30.12,North,11,4.0,-999.0,51,-99.99,,,0.00,weatherlink.com 1.10,2013-03-22 02:27:00,
2013-03-21 22:42:00,24.9,9.0,30.12,NE,40,5.0,-999.0,52,-99.99,,,0.00,weatherlink.com 1.10,2013-03-22 02:42:00,
2013-03-21 22:57:00,24.7,10.0,30.12,ENE,61,2.0,-999.0,53,-99.99,,,0.00,weatherlink.com 1.10,2013-03-22 02:57:00,
2013-03-21 23:11:00,24.6,10.0,30.13,NNE,26,8.0,-999.0,53,-99.99,,,0.00,weatherlink.com 1.10,2013-03-22 03:11:00,
2013-03-21 23:27:00,24.4,10.0,30.13,North,351,5.0,-999.0,54,-99.99,,,0.00,weatherlink.com 1.10,2013-03-22 03:27:00,
2013-03-21 23:42:00,24.3,10.0,30.13,North,10,5.0,-999.0,54,-99.99,,,0.00,weatherlink.com 1.10,2013-03-22 03:42:00,
2013-03-21 23:57:00,24.3,10.0,30.14,NNE,32,4.0,-999.0,55,-99.99,,,0.00,weatherlink.com 1.10,2013-03-22 03:57:00,